sensor_id;sensor_type;location;lat;lon;timestamp;P1;durP1;ratioP1;P2;durP2;ratioP2
11171;SDS011;5642;50.830;12.082;2023-04-25T00:01:36;1.88;;;1.77;;
11171;SDS011;5642;50.830;12.082;2023-04-25T00:04:03;1.83;;;1.73;;
11171;SDS011;5642;50.830;12.082;2023-04-25T00:06:31;1.75;;;1.63;;
11171;SDS011;5642;50.830;12.082;2023-04-25T00:09:03;1.88;;;1.70;;
11171;SDS011;5642;50.830;12.082;2023-04-25T00:11:33;1.80;;;1.70;;
11171;SDS011;5642;50.830;12.082;2023-04-25T00:13:59;2.05;;;1.85;;
11171;SDS011;5642;50.830;12.082;2023-04-25T00:16:28;2.45;;;2.17;;
11171;SDS011;5642;50.830;12.082;2023-04-25T00:18:55;2.20;;;2.00;;
11171;SDS011;5642;50.830;12.082;2023-04-25T00:21:22;2.00;;;1.80;;
11171;SDS011;5642;50.830;12.082;2023-04-25T00:23:50;1.90;;;1.80;;
11171;SDS011;5642;50.830;12.082;2023-04-25T00:26:15;1.80;;;1.70;;
11171;SDS011;5642;50.830;12.082;2023-04-25T00:28:41;2.65;;;1.70;;
11171;SDS011;5642;50.830;12.082;2023-04-25T00:31:07;1.73;;;1.63;;
11171;SDS011;5642;50.830;12.082;2023-04-25T00:33:33;1.65;;;1.55;;
11171;SDS011;5642;50.830;12.082;2023-04-25T00:36:00;1.60;;;1.50;;
11171;SDS011;5642;50.830;12.082;2023-04-25T00:38:26;2.25;;;1.73;;
11171;SDS011;5642;50.830;12.082;2023-04-25T00:40:52;2.00;;;1.85;;
11171;SDS011;5642;50.830;12.082;2023-04-25T00:43:20;2.15;;;1.95;;
11171;SDS011;5642;50.830;12.082;2023-04-25T00:45:47;1.90;;;1.80;;
11171;SDS011;5642;50.830;12.082;2023-04-25T00:48:17;1.90;;;1.70;;
11171;SDS011;5642;50.830;12.082;2023-04-25T00:50:44;1.67;;;1.58;;
11171;SDS011;5642;50.830;12.082;2023-04-25T00:56:15;1.50;;;1.40;;
11171;SDS011;5642;50.830;12.082;2023-04-25T00:58:42;1.77;;;1.67;;
11171;SDS011;5642;50.830;12.082;2023-04-25T01:01:18;1.98;;;1.67;;
11171;SDS011;5642;50.830;12.082;2023-04-25T01:03:45;1.65;;;1.55;;
11171;SDS011;5642;50.830;12.082;2023-04-25T01:06:12;1.45;;;1.35;;
11171;SDS011;5642;50.830;12.082;2023-04-25T01:08:54;1.75;;;1.65;;
11171;SDS011;5642;50.830;12.082;2023-04-25T01:11:20;1.77;;;1.67;;
11171;SDS011;5642;50.830;12.082;2023-04-25T01:13:46;2.03;;;1.75;;
11171;SDS011;5642;50.830;12.082;2023-04-25T01:16:13;1.98;;;1.58;;
11171;SDS011;5642;50.830;12.082;2023-04-25T01:18:39;1.98;;;1.88;;
11171;SDS011;5642;50.830;12.082;2023-04-25T01:21:06;1.40;;;1.30;;
11171;SDS011;5642;50.830;12.082;2023-04-25T01:23:40;1.50;;;1.40;;
11171;SDS011;5642;50.830;12.082;2023-04-25T01:26:10;1.60;;;1.50;;
11171;SDS011;5642;50.830;12.082;2023-04-25T01:28:37;1.35;;;1.25;;
11171;SDS011;5642;50.830;12.082;2023-04-25T01:31:06;1.83;;;1.73;;
11171;SDS011;5642;50.830;12.082;2023-04-25T01:33:33;3.03;;;1.90;;
11171;SDS011;5642;50.830;12.082;2023-04-25T01:35:59;1.80;;;1.70;;
11171;SDS011;5642;50.830;12.082;2023-04-25T01:41:24;1.80;;;1.70;;
11171;SDS011;5642;50.830;12.082;2023-04-25T01:43:50;1.88;;;1.70;;
11171;SDS011;5642;50.830;12.082;2023-04-25T01:46:17;1.67;;;1.58;;
11171;SDS011;5642;50.830;12.082;2023-04-25T01:48:44;1.80;;;1.70;;
11171;SDS011;5642;50.830;12.082;2023-04-25T01:51:10;1.60;;;1.50;;
11171;SDS011;5642;50.830;12.082;2023-04-25T01:53:37;1.65;;;1.55;;
11171;SDS011;5642;50.830;12.082;2023-04-25T01:56:04;1.50;;;1.40;;
11171;SDS011;5642;50.830;12.082;2023-04-25T01:58:30;2.15;;;1.55;;
11171;SDS011;5642;50.830;12.082;2023-04-25T02:00:57;1.65;;;1.55;;
11171;SDS011;5642;50.830;12.082;2023-04-25T02:03:23;1.98;;;1.70;;
11171;SDS011;5642;50.830;12.082;2023-04-25T02:05:49;2.38;;;1.90;;
11171;SDS011;5642;50.830;12.082;2023-04-25T02:08:20;1.70;;;1.60;;
11171;SDS011;5642;50.830;12.082;2023-04-25T02:10:46;2.25;;;1.52;;
11171;SDS011;5642;50.830;12.082;2023-04-25T02:13:12;1.60;;;1.50;;
11171;SDS011;5642;50.830;12.082;2023-04-25T02:15:38;1.80;;;1.70;;
11171;SDS011;5642;50.830;12.082;2023-04-25T02:18:04;2.30;;;1.42;;
11171;SDS011;5642;50.830;12.082;2023-04-25T02:20:31;1.67;;;1.58;;
11171;SDS011;5642;50.830;12.082;2023-04-25T02:23:00;2.13;;;1.80;;
11171;SDS011;5642;50.830;12.082;2023-04-25T02:25:26;1.60;;;1.50;;
11171;SDS011;5642;50.830;12.082;2023-04-25T02:27:52;2.35;;;1.60;;
11171;SDS011;5642;50.830;12.082;2023-04-25T02:30:20;1.55;;;1.45;;
11171;SDS011;5642;50.830;12.082;2023-04-25T02:32:46;2.08;;;1.88;;
11171;SDS011;5642;50.830;12.082;2023-04-25T02:35:12;2.13;;;1.92;;
11171;SDS011;5642;50.830;12.082;2023-04-25T02:37:41;2.30;;;2.10;;
11171;SDS011;5642;50.830;12.082;2023-04-25T02:40:08;2.28;;;2.08;;
11171;SDS011;5642;50.830;12.082;2023-04-25T02:42:35;2.05;;;1.80;;
11171;SDS011;5642;50.830;12.082;2023-04-25T02:45:01;2.17;;;2.00;;
11171;SDS011;5642;50.830;12.082;2023-04-25T02:47:28;1.90;;;1.80;;
11171;SDS011;5642;50.830;12.082;2023-04-25T02:49:54;2.53;;;1.80;;
11171;SDS011;5642;50.830;12.082;2023-04-25T02:52:20;1.80;;;1.70;;
11171;SDS011;5642;50.830;12.082;2023-04-25T02:54:46;1.80;;;1.70;;
11171;SDS011;5642;50.830;12.082;2023-04-25T02:57:12;1.83;;;1.73;;
11171;SDS011;5642;50.830;12.082;2023-04-25T02:59:39;1.90;;;1.73;;
11171;SDS011;5642;50.830;12.082;2023-04-25T03:02:05;1.60;;;1.50;;
11171;SDS011;5642;50.830;12.082;2023-04-25T03:04:31;2.03;;;1.92;;
11171;SDS011;5642;50.830;12.082;2023-04-25T03:06:59;1.98;;;1.83;;
11171;SDS011;5642;50.830;12.082;2023-04-25T03:09:25;1.73;;;1.63;;
11171;SDS011;5642;50.830;12.082;2023-04-25T03:11:51;2.10;;;1.80;;
11171;SDS011;5642;50.830;12.082;2023-04-25T03:14:17;1.58;;;1.48;;
11171;SDS011;5642;50.830;12.082;2023-04-25T03:16:43;2.00;;;1.80;;
11171;SDS011;5642;50.830;12.082;2023-04-25T03:19:09;1.70;;;1.60;;
11171;SDS011;5642;50.830;12.082;2023-04-25T03:21:35;2.00;;;1.80;;
11171;SDS011;5642;50.830;12.082;2023-04-25T03:24:02;1.80;;;1.70;;
11171;SDS011;5642;50.830;12.082;2023-04-25T03:26:29;2.42;;;1.70;;
11171;SDS011;5642;50.830;12.082;2023-04-25T03:28:56;1.85;;;1.75;;
11171;SDS011;5642;50.830;12.082;2023-04-25T03:31:22;1.75;;;1.65;;
11171;SDS011;5642;50.830;12.082;2023-04-25T03:33:48;1.80;;;1.70;;
11171;SDS011;5642;50.830;12.082;2023-04-25T03:36:15;2.00;;;1.58;;
11171;SDS011;5642;50.830;12.082;2023-04-25T03:38:40;2.08;;;1.55;;
11171;SDS011;5642;50.830;12.082;2023-04-25T03:41:07;1.70;;;1.60;;
11171;SDS011;5642;50.830;12.082;2023-04-25T03:43:33;1.75;;;1.65;;
11171;SDS011;5642;50.830;12.082;2023-04-25T03:45:59;1.98;;;1.80;;
11171;SDS011;5642;50.830;12.082;2023-04-25T03:48:26;1.63;;;1.52;;
11171;SDS011;5642;50.830;12.082;2023-04-25T03:53:44;1.60;;;1.50;;
11171;SDS011;5642;50.830;12.082;2023-04-25T03:56:10;1.80;;;1.70;;
11171;SDS011;5642;50.830;12.082;2023-04-25T03:58:37;1.70;;;1.60;;
11171;SDS011;5642;50.830;12.082;2023-04-25T04:01:03;1.85;;;1.60;;
11171;SDS011;5642;50.830;12.082;2023-04-25T04:03:33;1.70;;;1.60;;
11171;SDS011;5642;50.830;12.082;2023-04-25T04:06:01;2.22;;;1.73;;
11171;SDS011;5642;50.830;12.082;2023-04-25T04:08:29;1.73;;;1.63;;
11171;SDS011;5642;50.830;12.082;2023-04-25T04:10:56;1.80;;;1.70;;
11171;SDS011;5642;50.830;12.082;2023-04-25T04:13:25;1.88;;;1.77;;
11171;SDS011;5642;50.830;12.082;2023-04-25T04:15:52;1.75;;;1.65;;
11171;SDS011;5642;50.830;12.082;2023-04-25T04:18:18;1.80;;;1.63;;
11171;SDS011;5642;50.830;12.082;2023-04-25T04:20:46;1.55;;;1.45;;
11171;SDS011;5642;50.830;12.082;2023-04-25T04:23:11;1.85;;;1.70;;
11171;SDS011;5642;50.830;12.082;2023-04-25T04:25:38;1.88;;;1.77;;
11171;SDS011;5642;50.830;12.082;2023-04-25T04:28:06;2.22;;;2.03;;
11171;SDS011;5642;50.830;12.082;2023-04-25T04:30:32;2.00;;;1.90;;
11171;SDS011;5642;50.830;12.082;2023-04-25T04:33:01;1.75;;;1.63;;
11171;SDS011;5642;50.830;12.082;2023-04-25T04:35:28;1.95;;;1.85;;
11171;SDS011;5642;50.830;12.082;2023-04-25T04:37:55;1.73;;;1.63;;
11171;SDS011;5642;50.830;12.082;2023-04-25T04:40:21;2.00;;;1.80;;
11171;SDS011;5642;50.830;12.082;2023-04-25T04:42:48;2.60;;;1.98;;
11171;SDS011;5642;50.830;12.082;2023-04-25T04:45:15;1.90;;;1.80;;
11171;SDS011;5642;50.830;12.082;2023-04-25T04:47:41;1.92;;;1.70;;
11171;SDS011;5642;50.830;12.082;2023-04-25T04:50:09;2.10;;;1.65;;
11171;SDS011;5642;50.830;12.082;2023-04-25T04:52:38;1.70;;;1.60;;
11171;SDS011;5642;50.830;12.082;2023-04-25T04:55:04;1.70;;;1.60;;
11171;SDS011;5642;50.830;12.082;2023-04-25T04:57:49;2.13;;;1.92;;
11171;SDS011;5642;50.830;12.082;2023-04-25T05:00:15;1.95;;;1.58;;
11171;SDS011;5642;50.830;12.082;2023-04-25T05:02:42;1.95;;;1.70;;
11171;SDS011;5642;50.830;12.082;2023-04-25T05:05:08;1.85;;;1.42;;
11171;SDS011;5642;50.830;12.082;2023-04-25T05:07:34;1.75;;;1.65;;
11171;SDS011;5642;50.830;12.082;2023-04-25T05:10:00;1.60;;;1.50;;
11171;SDS011;5642;50.830;12.082;2023-04-25T05:12:27;2.05;;;1.60;;
11171;SDS011;5642;50.830;12.082;2023-04-25T05:14:53;1.73;;;1.63;;
11171;SDS011;5642;50.830;12.082;2023-04-25T05:17:19;1.60;;;1.50;;
11171;SDS011;5642;50.830;12.082;2023-04-25T05:19:46;1.42;;;1.33;;
11171;SDS011;5642;50.830;12.082;2023-04-25T05:22:12;1.13;;;1.13;;
11171;SDS011;5642;50.830;12.082;2023-04-25T05:24:38;1.35;;;1.30;;
11171;SDS011;5642;50.830;12.082;2023-04-25T05:27:04;1.25;;;1.17;;
11171;SDS011;5642;50.830;12.082;2023-04-25T05:29:31;1.40;;;1.30;;
11171;SDS011;5642;50.830;12.082;2023-04-25T05:31:57;1.42;;;1.20;;
11171;SDS011;5642;50.830;12.082;2023-04-25T05:34:36;1.30;;;1.20;;
11171;SDS011;5642;50.830;12.082;2023-04-25T05:37:02;1.35;;;1.25;;
11171;SDS011;5642;50.830;12.082;2023-04-25T05:39:28;1.52;;;1.23;;
11171;SDS011;5642;50.830;12.082;2023-04-25T05:41:55;1.52;;;1.13;;
11171;SDS011;5642;50.830;12.082;2023-04-25T05:44:21;1.40;;;1.23;;
11171;SDS011;5642;50.830;12.082;2023-04-25T05:46:47;1.60;;;1.30;;
11171;SDS011;5642;50.830;12.082;2023-04-25T05:49:13;1.77;;;1.35;;
11171;SDS011;5642;50.830;12.082;2023-04-25T05:51:39;2.03;;;1.27;;
11171;SDS011;5642;50.830;12.082;2023-04-25T05:54:05;1.40;;;1.30;;
11171;SDS011;5642;50.830;12.082;2023-04-25T05:56:31;1.13;;;1.13;;
11171;SDS011;5642;50.830;12.082;2023-04-25T05:58:57;1.70;;;1.58;;
11171;SDS011;5642;50.830;12.082;2023-04-25T06:01:23;2.08;;;1.20;;
11171;SDS011;5642;50.830;12.082;2023-04-25T06:03:50;1.10;;;1.10;;
11171;SDS011;5642;50.830;12.082;2023-04-25T06:06:18;1.60;;;1.30;;
11171;SDS011;5642;50.830;12.082;2023-04-25T06:08:44;1.20;;;1.10;;
11171;SDS011;5642;50.830;12.082;2023-04-25T06:11:11;3.13;;;1.50;;
11171;SDS011;5642;50.830;12.082;2023-04-25T06:13:37;1.40;;;1.30;;
11171;SDS011;5642;50.830;12.082;2023-04-25T06:16:03;1.38;;;1.27;;
11171;SDS011;5642;50.830;12.082;2023-04-25T06:21:15;1.30;;;1.20;;
11171;SDS011;5642;50.830;12.082;2023-04-25T06:23:41;1.17;;;1.05;;
11171;SDS011;5642;50.830;12.082;2023-04-25T06:26:07;1.20;;;1.10;;
11171;SDS011;5642;50.830;12.082;2023-04-25T06:28:33;1.35;;;1.25;;
11171;SDS011;5642;50.830;12.082;2023-04-25T06:30:59;0.90;;;0.90;;
11171;SDS011;5642;50.830;12.082;2023-04-25T06:33:27;0.80;;;0.80;;
11171;SDS011;5642;50.830;12.082;2023-04-25T06:35:53;0.88;;;0.88;;
11171;SDS011;5642;50.830;12.082;2023-04-25T06:38:18;1.58;;;0.73;;
11171;SDS011;5642;50.830;12.082;2023-04-25T06:40:45;1.73;;;0.80;;
11171;SDS011;5642;50.830;12.082;2023-04-25T06:43:11;1.15;;;0.80;;
11171;SDS011;5642;50.830;12.082;2023-04-25T06:45:37;1.15;;;0.80;;
11171;SDS011;5642;50.830;12.082;2023-04-25T06:48:03;0.85;;;0.85;;
11171;SDS011;5642;50.830;12.082;2023-04-25T06:50:29;1.10;;;1.00;;
11171;SDS011;5642;50.830;12.082;2023-04-25T06:52:55;1.02;;;0.85;;
11171;SDS011;5642;50.830;12.082;2023-04-25T06:55:21;1.02;;;0.90;;
11171;SDS011;5642;50.830;12.082;2023-04-25T06:57:50;1.00;;;1.00;;
11171;SDS011;5642;50.830;12.082;2023-04-25T07:00:16;0.93;;;0.90;;
11171;SDS011;5642;50.830;12.082;2023-04-25T07:02:44;0.80;;;0.80;;
11171;SDS011;5642;50.830;12.082;2023-04-25T07:05:10;1.13;;;0.90;;
11171;SDS011;5642;50.830;12.082;2023-04-25T07:07:36;1.00;;;1.00;;
11171;SDS011;5642;50.830;12.082;2023-04-25T07:10:09;0.77;;;0.77;;
11171;SDS011;5642;50.830;12.082;2023-04-25T07:12:35;1.00;;;0.90;;
11171;SDS011;5642;50.830;12.082;2023-04-25T07:15:01;1.13;;;1.02;;
11171;SDS011;5642;50.830;12.082;2023-04-25T07:17:32;0.90;;;0.90;;
11171;SDS011;5642;50.830;12.082;2023-04-25T07:19:59;1.35;;;1.02;;
11171;SDS011;5642;50.830;12.082;2023-04-25T07:22:25;2.25;;;1.27;;
11171;SDS011;5642;50.830;12.082;2023-04-25T07:24:52;1.15;;;1.05;;
11171;SDS011;5642;50.830;12.082;2023-04-25T07:27:18;1.00;;;0.90;;
11171;SDS011;5642;50.830;12.082;2023-04-25T07:29:45;1.10;;;1.00;;
11171;SDS011;5642;50.830;12.082;2023-04-25T07:32:11;1.10;;;1.00;;
11171;SDS011;5642;50.830;12.082;2023-04-25T07:34:39;1.17;;;1.00;;
11171;SDS011;5642;50.830;12.082;2023-04-25T07:37:05;1.00;;;0.90;;
11171;SDS011;5642;50.830;12.082;2023-04-25T07:39:31;0.77;;;0.77;;
11171;SDS011;5642;50.830;12.082;2023-04-25T07:41:57;1.15;;;0.95;;
11171;SDS011;5642;50.830;12.082;2023-04-25T07:44:24;0.80;;;0.80;;
11171;SDS011;5642;50.830;12.082;2023-04-25T07:46:51;1.40;;;0.93;;
11171;SDS011;5642;50.830;12.082;2023-04-25T07:49:17;1.17;;;1.00;;
11171;SDS011;5642;50.830;12.082;2023-04-25T07:51:43;1.15;;;1.05;;
11171;SDS011;5642;50.830;12.082;2023-04-25T07:54:12;1.00;;;1.00;;
11171;SDS011;5642;50.830;12.082;2023-04-25T07:56:40;0.80;;;0.80;;
11171;SDS011;5642;50.830;12.082;2023-04-25T07:59:06;0.82;;;0.80;;
11171;SDS011;5642;50.830;12.082;2023-04-25T08:01:33;1.33;;;0.98;;
11171;SDS011;5642;50.830;12.082;2023-04-25T08:03:59;0.90;;;0.90;;
11171;SDS011;5642;50.830;12.082;2023-04-25T08:06:26;1.08;;;1.05;;
11171;SDS011;5642;50.830;12.082;2023-04-25T08:08:55;0.90;;;0.90;;
11171;SDS011;5642;50.830;12.082;2023-04-25T08:11:22;1.13;;;1.00;;
11171;SDS011;5642;50.830;12.082;2023-04-25T08:13:50;2.42;;;0.90;;
11171;SDS011;5642;50.830;12.082;2023-04-25T08:16:16;0.98;;;0.90;;
11171;SDS011;5642;50.830;12.082;2023-04-25T08:18:42;0.90;;;0.90;;
11171;SDS011;5642;50.830;12.082;2023-04-25T08:21:09;1.73;;;0.93;;
11171;SDS011;5642;50.830;12.082;2023-04-25T08:23:37;1.15;;;1.00;;
11171;SDS011;5642;50.830;12.082;2023-04-25T08:26:03;1.20;;;1.05;;
11171;SDS011;5642;50.830;12.082;2023-04-25T08:28:31;1.00;;;0.90;;
11171;SDS011;5642;50.830;12.082;2023-04-25T08:30:57;0.82;;;0.82;;
11171;SDS011;5642;50.830;12.082;2023-04-25T08:33:23;1.13;;;1.02;;
11171;SDS011;5642;50.830;12.082;2023-04-25T08:35:50;1.00;;;1.00;;
11171;SDS011;5642;50.830;12.082;2023-04-25T08:38:17;0.93;;;0.93;;
11171;SDS011;5642;50.830;12.082;2023-04-25T08:40:45;0.93;;;0.85;;
11171;SDS011;5642;50.830;12.082;2023-04-25T08:43:20;1.08;;;1.05;;
11171;SDS011;5642;50.830;12.082;2023-04-25T08:45:58;0.75;;;0.65;;
11171;SDS011;5642;50.830;12.082;2023-04-25T08:48:28;1.00;;;1.00;;
11171;SDS011;5642;50.830;12.082;2023-04-25T08:50:58;1.42;;;0.90;;
11171;SDS011;5642;50.830;12.082;2023-04-25T08:53:32;1.13;;;0.90;;
11171;SDS011;5642;50.830;12.082;2023-04-25T08:55:59;1.33;;;1.10;;
11171;SDS011;5642;50.830;12.082;2023-04-25T08:58:29;0.90;;;0.90;;
11171;SDS011;5642;50.830;12.082;2023-04-25T09:00:56;1.77;;;1.20;;
11171;SDS011;5642;50.830;12.082;2023-04-25T09:03:22;2.15;;;1.33;;
11171;SDS011;5642;50.830;12.082;2023-04-25T09:05:48;1.05;;;1.05;;
11171;SDS011;5642;50.830;12.082;2023-04-25T09:08:15;1.17;;;1.08;;
11171;SDS011;5642;50.830;12.082;2023-04-25T09:10:42;2.33;;;1.10;;
11171;SDS011;5642;50.830;12.082;2023-04-25T09:15:54;1.10;;;1.00;;
11171;SDS011;5642;50.830;12.082;2023-04-25T09:18:22;2.13;;;1.00;;
11171;SDS011;5642;50.830;12.082;2023-04-25T09:21:27;1.30;;;1.00;;
11171;SDS011;5642;50.830;12.082;2023-04-25T09:23:48;1.15;;;1.05;;
11171;SDS011;5642;50.830;12.082;2023-04-25T09:26:18;1.15;;;1.00;;
11171;SDS011;5642;50.830;12.082;2023-04-25T09:28:45;1.30;;;1.20;;
11171;SDS011;5642;50.830;12.082;2023-04-25T09:31:21;0.90;;;0.90;;
11171;SDS011;5642;50.830;12.082;2023-04-25T09:33:50;1.20;;;1.10;;
11171;SDS011;5642;50.830;12.082;2023-04-25T09:36:26;1.08;;;1.00;;
11171;SDS011;5642;50.830;12.082;2023-04-25T09:38:53;1.13;;;1.00;;
11171;SDS011;5642;50.830;12.082;2023-04-25T09:41:25;0.90;;;0.90;;
11171;SDS011;5642;50.830;12.082;2023-04-25T09:43:52;1.10;;;1.00;;
11171;SDS011;5642;50.830;12.082;2023-04-25T09:46:32;1.75;;;1.00;;
11171;SDS011;5642;50.830;12.082;2023-04-25T09:49:07;1.30;;;1.20;;
11171;SDS011;5642;50.830;12.082;2023-04-25T09:51:33;1.10;;;1.00;;
11171;SDS011;5642;50.830;12.082;2023-04-25T09:53:59;1.27;;;1.17;;
11171;SDS011;5642;50.830;12.082;2023-04-25T09:56:25;1.17;;;1.10;;
11171;SDS011;5642;50.830;12.082;2023-04-25T09:58:57;1.52;;;1.38;;
11171;SDS011;5642;50.830;12.082;2023-04-25T10:01:23;1.48;;;1.02;;
11171;SDS011;5642;50.830;12.082;2023-04-25T10:03:52;1.13;;;1.13;;
11171;SDS011;5642;50.830;12.082;2023-04-25T10:06:24;1.35;;;1.25;;
11171;SDS011;5642;50.830;12.082;2023-04-25T10:08:52;1.10;;;1.10;;
11171;SDS011;5642;50.830;12.082;2023-04-25T10:11:20;1.27;;;1.17;;
11171;SDS011;5642;50.830;12.082;2023-04-25T10:13:48;1.15;;;1.10;;
11171;SDS011;5642;50.830;12.082;2023-04-25T10:16:15;1.17;;;1.17;;
11171;SDS011;5642;50.830;12.082;2023-04-25T10:18:57;1.23;;;1.13;;
11171;SDS011;5642;50.830;12.082;2023-04-25T10:21:26;1.30;;;1.20;;
11171;SDS011;5642;50.830;12.082;2023-04-25T10:23:56;1.33;;;1.23;;
11171;SDS011;5642;50.830;12.082;2023-04-25T10:26:23;1.00;;;1.00;;
11171;SDS011;5642;50.830;12.082;2023-04-25T10:29:00;1.77;;;1.20;;
11171;SDS011;5642;50.830;12.082;2023-04-25T10:31:31;1.30;;;1.13;;
11171;SDS011;5642;50.830;12.082;2023-04-25T10:33:59;1.05;;;1.05;;
11171;SDS011;5642;50.830;12.082;2023-04-25T10:36:26;1.33;;;1.10;;
11171;SDS011;5642;50.830;12.082;2023-04-25T10:41:55;1.10;;;1.10;;
11171;SDS011;5642;50.830;12.082;2023-04-25T10:44:26;1.20;;;1.10;;
11171;SDS011;5642;50.830;12.082;2023-04-25T10:50:07;0.90;;;0.90;;
11171;SDS011;5642;50.830;12.082;2023-04-25T10:52:34;1.40;;;0.90;;
11171;SDS011;5642;50.830;12.082;2023-04-25T10:55:02;2.60;;;1.10;;
11171;SDS011;5642;50.830;12.082;2023-04-25T10:57:40;1.02;;;0.93;;
11171;SDS011;5642;50.830;12.082;2023-04-25T11:00:15;0.90;;;0.90;;
11171;SDS011;5642;50.830;12.082;2023-04-25T11:02:52;0.80;;;0.80;;
11171;SDS011;5642;50.830;12.082;2023-04-25T11:05:31;1.20;;;1.10;;
11171;SDS011;5642;50.830;12.082;2023-04-25T11:08:02;1.45;;;0.90;;
11171;SDS011;5642;50.830;12.082;2023-04-25T11:10:34;1.48;;;0.80;;
11171;SDS011;5642;50.830;12.082;2023-04-25T11:13:03;0.90;;;0.90;;
11171;SDS011;5642;50.830;12.082;2023-04-25T11:15:29;0.80;;;0.80;;
11171;SDS011;5642;50.830;12.082;2023-04-25T11:17:55;0.82;;;0.82;;
11171;SDS011;5642;50.830;12.082;2023-04-25T11:20:22;1.08;;;1.00;;
11171;SDS011;5642;50.830;12.082;2023-04-25T11:22:51;0.85;;;0.80;;
11171;SDS011;5642;50.830;12.082;2023-04-25T11:25:20;0.80;;;0.80;;
11171;SDS011;5642;50.830;12.082;2023-04-25T11:30:16;0.60;;;0.60;;
11171;SDS011;5642;50.830;12.082;2023-04-25T11:32:54;0.80;;;0.80;;
11171;SDS011;5642;50.830;12.082;2023-04-25T11:35:21;1.52;;;0.65;;
11171;SDS011;5642;50.830;12.082;2023-04-25T11:37:48;1.50;;;0.80;;
11171;SDS011;5642;50.830;12.082;2023-04-25T11:40:15;0.60;;;0.60;;
11171;SDS011;5642;50.830;12.082;2023-04-25T11:42:45;0.60;;;0.60;;
11171;SDS011;5642;50.830;12.082;2023-04-25T11:45:12;1.02;;;0.70;;
11171;SDS011;5642;50.830;12.082;2023-04-25T11:50:27;1.13;;;0.82;;
11171;SDS011;5642;50.830;12.082;2023-04-25T11:52:55;1.17;;;1.02;;
11171;SDS011;5642;50.830;12.082;2023-04-25T11:55:22;1.17;;;0.90;;
11171;SDS011;5642;50.830;12.082;2023-04-25T11:57:48;1.00;;;0.85;;
11171;SDS011;5642;50.830;12.082;2023-04-25T12:00:21;0.90;;;0.88;;
11171;SDS011;5642;50.830;12.082;2023-04-25T12:02:52;1.60;;;0.85;;
11171;SDS011;5642;50.830;12.082;2023-04-25T12:05:19;0.98;;;0.90;;
11171;SDS011;5642;50.830;12.082;2023-04-25T12:07:46;1.27;;;0.88;;
11171;SDS011;5642;50.830;12.082;2023-04-25T12:10:19;1.42;;;0.95;;
11171;SDS011;5642;50.830;12.082;2023-04-25T12:12:46;1.17;;;0.90;;
11171;SDS011;5642;50.830;12.082;2023-04-25T12:15:17;1.67;;;1.00;;
11171;SDS011;5642;50.830;12.082;2023-04-25T12:17:52;0.82;;;0.82;;
11171;SDS011;5642;50.830;12.082;2023-04-25T12:20:20;1.20;;;0.70;;
11171;SDS011;5642;50.830;12.082;2023-04-25T12:22:50;2.65;;;1.92;;
11171;SDS011;5642;50.830;12.082;2023-04-25T12:31:01;2.00;;;1.05;;
11171;SDS011;5642;50.830;12.082;2023-04-25T12:33:32;5.35;;;1.10;;
11171;SDS011;5642;50.830;12.082;2023-04-25T12:36:00;1.25;;;0.90;;
11171;SDS011;5642;50.830;12.082;2023-04-25T12:38:39;1.67;;;0.70;;
11171;SDS011;5642;50.830;12.082;2023-04-25T12:41:06;1.13;;;0.95;;
11171;SDS011;5642;50.830;12.082;2023-04-25T12:43:33;1.30;;;1.00;;
11171;SDS011;5642;50.830;12.082;2023-04-25T12:46:00;0.95;;;0.70;;
11171;SDS011;5642;50.830;12.082;2023-04-25T12:48:26;2.03;;;0.77;;
11171;SDS011;5642;50.830;12.082;2023-04-25T12:50:52;1.23;;;0.70;;
11171;SDS011;5642;50.830;12.082;2023-04-25T12:53:19;0.85;;;0.65;;
11171;SDS011;5642;50.830;12.082;2023-04-25T12:55:47;0.93;;;0.82;;
11171;SDS011;5642;50.830;12.082;2023-04-25T12:58:14;1.02;;;0.80;;
11171;SDS011;5642;50.830;12.082;2023-04-25T13:03:26;1.52;;;0.80;;
11171;SDS011;5642;50.830;12.082;2023-04-25T13:05:52;1.25;;;0.90;;
11171;SDS011;5642;50.830;12.082;2023-04-25T13:08:20;0.68;;;0.68;;
11171;SDS011;5642;50.830;12.082;2023-04-25T13:10:47;1.35;;;0.77;;
11171;SDS011;5642;50.830;12.082;2023-04-25T13:13:13;1.05;;;0.77;;
11171;SDS011;5642;50.830;12.082;2023-04-25T13:15:40;1.13;;;0.90;;
11171;SDS011;5642;50.830;12.082;2023-04-25T13:18:06;2.50;;;0.95;;
11171;SDS011;5642;50.830;12.082;2023-04-25T13:20:32;1.85;;;1.05;;
11171;SDS011;5642;50.830;12.082;2023-04-25T13:23:03;1.45;;;0.95;;
11171;SDS011;5642;50.830;12.082;2023-04-25T13:25:29;1.20;;;0.90;;
11171;SDS011;5642;50.830;12.082;2023-04-25T13:27:55;2.38;;;1.20;;
11171;SDS011;5642;50.830;12.082;2023-04-25T13:30:21;1.67;;;0.90;;
11171;SDS011;5642;50.830;12.082;2023-04-25T13:32:47;1.02;;;0.80;;
11171;SDS011;5642;50.830;12.082;2023-04-25T13:35:13;1.42;;;0.73;;
11171;SDS011;5642;50.830;12.082;2023-04-25T13:37:40;1.42;;;0.90;;
11171;SDS011;5642;50.830;12.082;2023-04-25T13:40:07;1.65;;;0.95;;
11171;SDS011;5642;50.830;12.082;2023-04-25T13:42:35;2.13;;;0.85;;
11171;SDS011;5642;50.830;12.082;2023-04-25T13:45:02;0.80;;;0.80;;
11171;SDS011;5642;50.830;12.082;2023-04-25T13:47:28;1.05;;;0.80;;
11171;SDS011;5642;50.830;12.082;2023-04-25T13:49:55;2.13;;;0.98;;
11171;SDS011;5642;50.830;12.082;2023-04-25T13:52:24;1.95;;;0.60;;
11171;SDS011;5642;50.830;12.082;2023-04-25T13:54:51;1.92;;;0.90;;
11171;SDS011;5642;50.830;12.082;2023-04-25T13:57:17;1.45;;;0.85;;
11171;SDS011;5642;50.830;12.082;2023-04-25T13:59:43;2.17;;;0.88;;
11171;SDS011;5642;50.830;12.082;2023-04-25T14:02:10;1.52;;;0.90;;
11171;SDS011;5642;50.830;12.082;2023-04-25T14:04:36;2.22;;;0.95;;
11171;SDS011;5642;50.830;12.082;2023-04-25T14:07:02;0.80;;;0.80;;
11171;SDS011;5642;50.830;12.082;2023-04-25T14:09:30;1.48;;;1.00;;
11171;SDS011;5642;50.830;12.082;2023-04-25T14:11:56;0.90;;;0.80;;
11171;SDS011;5642;50.830;12.082;2023-04-25T14:14:22;1.05;;;0.80;;
11171;SDS011;5642;50.830;12.082;2023-04-25T14:16:49;1.25;;;0.75;;
11171;SDS011;5642;50.830;12.082;2023-04-25T14:19:16;0.80;;;0.80;;
11171;SDS011;5642;50.830;12.082;2023-04-25T14:21:43;1.20;;;0.80;;
11171;SDS011;5642;50.830;12.082;2023-04-25T14:24:09;0.82;;;0.60;;
11171;SDS011;5642;50.830;12.082;2023-04-25T14:26:39;0.98;;;0.80;;
11171;SDS011;5642;50.830;12.082;2023-04-25T14:29:06;1.15;;;0.80;;
11171;SDS011;5642;50.830;12.082;2023-04-25T14:31:34;1.73;;;0.88;;
11171;SDS011;5642;50.830;12.082;2023-04-25T14:34:01;1.25;;;0.80;;
11171;SDS011;5642;50.830;12.082;2023-04-25T14:36:28;2.13;;;1.08;;
11171;SDS011;5642;50.830;12.082;2023-04-25T14:38:54;2.03;;;1.00;;
11171;SDS011;5642;50.830;12.082;2023-04-25T14:41:21;2.00;;;0.93;;
11171;SDS011;5642;50.830;12.082;2023-04-25T14:43:47;1.10;;;1.00;;
11171;SDS011;5642;50.830;12.082;2023-04-25T14:46:13;1.25;;;0.70;;
11171;SDS011;5642;50.830;12.082;2023-04-25T14:48:39;2.88;;;1.00;;
11171;SDS011;5642;50.830;12.082;2023-04-25T14:51:05;0.95;;;0.95;;
11171;SDS011;5642;50.830;12.082;2023-04-25T14:53:31;0.60;;;0.60;;
11171;SDS011;5642;50.830;12.082;2023-04-25T14:55:57;1.02;;;0.82;;
11171;SDS011;5642;50.830;12.082;2023-04-25T14:58:29;0.93;;;0.82;;
11171;SDS011;5642;50.830;12.082;2023-04-25T15:00:56;1.80;;;0.88;;
11171;SDS011;5642;50.830;12.082;2023-04-25T15:03:22;0.98;;;0.80;;
11171;SDS011;5642;50.830;12.082;2023-04-25T15:05:48;1.55;;;0.93;;
11171;SDS011;5642;50.830;12.082;2023-04-25T15:08:15;1.50;;;1.00;;
11171;SDS011;5642;50.830;12.082;2023-04-25T15:10:40;2.45;;;0.80;;
11171;SDS011;5642;50.830;12.082;2023-04-25T15:13:06;2.20;;;0.80;;
11171;SDS011;5642;50.830;12.082;2023-04-25T15:15:33;1.38;;;0.90;;
11171;SDS011;5642;50.830;12.082;2023-04-25T15:17:58;0.80;;;0.80;;
11171;SDS011;5642;50.830;12.082;2023-04-25T15:20:25;1.10;;;1.00;;
11171;SDS011;5642;50.830;12.082;2023-04-25T15:22:53;1.17;;;0.70;;
11171;SDS011;5642;50.830;12.082;2023-04-25T15:25:19;2.17;;;1.00;;